sensor_id;sensor_type;location;lat;lon;timestamp;pressure;altitude;pressure_sealevel;temperature;humidity
33845;BME280;20145;43.118;25.694;2023-03-26T00:01:05;98793.88;;;13.78;70.75
33845;BME280;20145;43.118;25.694;2023-03-26T00:03:33;98795.53;;;13.80;71.43
33845;BME280;20145;43.118;25.694;2023-03-26T00:06:05;98789.78;;;13.71;71.02
33845;BME280;20145;43.118;25.694;2023-03-26T00:08:35;98785.44;;;13.71;71.66
33845;BME280;20145;43.118;25.694;2023-03-26T00:11:02;98777.91;;;13.65;71.66
33845;BME280;20145;43.118;25.694;2023-03-26T00:13:28;98787.56;;;13.60;71.31
33845;BME280;20145;43.118;25.694;2023-03-26T00:15:54;98785.88;;;13.59;71.18
33845;BME280;20145;43.118;25.694;2023-03-26T00:18:20;98781.53;;;13.59;71.69
33845;BME280;20145;43.118;25.694;2023-03-26T00:20:49;98781.44;;;13.63;71.08
33845;BME280;20145;43.118;25.694;2023-03-26T00:23:15;98779.66;;;13.65;71.26
33845;BME280;20145;43.118;25.694;2023-03-26T00:25:41;98790.63;;;13.71;71.52
33845;BME280;20145;43.118;25.694;2023-03-26T00:28:08;98788.22;;;13.67;72.80
33845;BME280;20145;43.118;25.694;2023-03-26T00:30:34;98782.16;;;13.66;71.54
33845;BME280;20145;43.118;25.694;2023-03-26T00:33:00;98776.03;;;13.69;72.29
33845;BME280;20145;43.118;25.694;2023-03-26T00:35:26;98775.31;;;13.65;71.84
33845;BME280;20145;43.118;25.694;2023-03-26T00:37:53;98778.72;;;13.66;72.27
33845;BME280;20145;43.118;25.694;2023-03-26T00:40:19;98770.47;;;13.54;72.85
33845;BME280;20145;43.118;25.694;2023-03-26T00:42:45;98783.16;;;13.64;73.40
33845;BME280;20145;43.118;25.694;2023-03-26T00:45:11;98796.72;;;13.70;71.73
33845;BME280;20145;43.118;25.694;2023-03-26T00:47:36;98792.50;;;13.68;73.21
33845;BME280;20145;43.118;25.694;2023-03-26T00:50:05;98798.53;;;13.68;72.82
33845;BME280;20145;43.118;25.694;2023-03-26T00:52:31;98795.06;;;13.69;72.04
33845;BME280;20145;43.118;25.694;2023-03-26T00:54:57;98793.22;;;13.71;nan
33845;BME280;20145;43.118;25.694;2023-03-26T00:57:23;98796.72;;;13.70;72.89
33845;BME280;20145;43.118;25.694;2023-03-26T00:59:54;98799.31;;;13.70;73.16
33845;BME280;20145;43.118;25.694;2023-03-26T01:02:19;98784.59;;;13.71;73.35
33845;BME280;20145;43.118;25.694;2023-03-26T01:04:49;98795.88;;;13.70;72.68
33845;BME280;20145;43.118;25.694;2023-03-26T01:07:21;98792.72;;;13.61;73.43
33845;BME280;20145;43.118;25.694;2023-03-26T01:09:57;98805.25;;;13.74;73.27
33845;BME280;20145;43.118;25.694;2023-03-26T01:12:25;98806.16;;;13.73;72.77
33845;BME280;20145;43.118;25.694;2023-03-26T01:14:54;98817.50;;;13.69;72.29
33845;BME280;20145;43.118;25.694;2023-03-26T01:17:22;98815.94;;;13.65;73.80
33845;BME280;20145;43.118;25.694;2023-03-26T01:20:12;98816.78;;;13.65;73.63
33845;BME280;20145;43.118;25.694;2023-03-26T01:22:44;98806.03;;;13.51;73.79
33845;BME280;20145;43.118;25.694;2023-03-26T01:25:12;98818.75;;;13.58;73.91
33845;BME280;20145;43.118;25.694;2023-03-26T01:27:42;98803.56;;;13.48;73.22
33845;BME280;20145;43.118;25.694;2023-03-26T01:33:00;98833.63;;;13.52;74.38
33845;BME280;20145;43.118;25.694;2023-03-26T01:39:01;98833.00;;;13.45;74.76
33845;BME280;20145;43.118;25.694;2023-03-26T01:41:50;98838.78;;;13.53;73.69
33845;BME280;20145;43.118;25.694;2023-03-26T01:46:58;98831.03;;;13.52;74.60
33845;BME280;20145;43.118;25.694;2023-03-26T01:49:26;98829.59;;;13.43;74.90
33845;BME280;20145;43.118;25.694;2023-03-26T01:51:54;98840.31;;;13.32;75.93
33845;BME280;20145;43.118;25.694;2023-03-26T01:54:23;98825.97;;;13.22;77.96
33845;BME280;20145;43.118;25.694;2023-03-26T02:02:12;98827.34;;;13.06;78.93
33845;BME280;20145;43.118;25.694;2023-03-26T02:05:11;98847.13;;;13.08;78.97
33845;BME280;20145;43.118;25.694;2023-03-26T02:07:43;98851.97;;;13.19;79.22
33845;BME280;20145;43.118;25.694;2023-03-26T02:10:20;98850.56;;;13.09;80.68
33845;BME280;20145;43.118;25.694;2023-03-26T02:12:48;98840.44;;;13.00;79.84
33845;BME280;20145;43.118;25.694;2023-03-26T02:15:14;98852.56;;;12.99;80.11
33845;BME280;20145;43.118;25.694;2023-03-26T02:17:41;98849.13;;;12.99;81.74
33845;BME280;20145;43.118;25.694;2023-03-26T02:20:12;98844.84;;;12.98;80.68
33845;BME280;20145;43.118;25.694;2023-03-26T02:22:40;98852.72;;;12.94;81.75
33845;BME280;20145;43.118;25.694;2023-03-26T02:25:08;98851.31;;;12.84;82.57
33845;BME280;20145;43.118;25.694;2023-03-26T02:27:35;98852.88;;;12.88;81.24
33845;BME280;20145;43.118;25.694;2023-03-26T02:30:02;98857.44;;;12.80;80.80
33845;BME280;20145;43.118;25.694;2023-03-26T02:32:27;98854.09;;;12.78;80.45
33845;BME280;20145;43.118;25.694;2023-03-26T02:34:53;98857.50;;;12.79;80.03
33845;BME280;20145;43.118;25.694;2023-03-26T02:37:18;98860.22;;;12.74;80.31
33845;BME280;20145;43.118;25.694;2023-03-26T02:39:44;98874.97;;;12.72;80.07
33845;BME280;20145;43.118;25.694;2023-03-26T02:42:10;98875.63;;;12.79;79.86
33845;BME280;20145;43.118;25.694;2023-03-26T02:44:35;98873.75;;;12.84;79.01
33845;BME280;20145;43.118;25.694;2023-03-26T02:47:03;98869.94;;;12.67;78.64
33845;BME280;20145;43.118;25.694;2023-03-26T02:49:28;98875.13;;;12.66;78.38
33845;BME280;20145;43.118;25.694;2023-03-26T02:51:54;98871.97;;;12.56;78.55
33845;BME280;20145;43.118;25.694;2023-03-26T02:54:21;98880.38;;;12.64;79.03
33845;BME280;20145;43.118;25.694;2023-03-26T02:56:47;98877.88;;;12.61;80.41
33845;BME280;20145;43.118;25.694;2023-03-26T02:59:12;98880.47;;;12.61;79.14
33845;BME280;20145;43.118;25.694;2023-03-26T03:01:39;98901.91;;;12.65;79.18
33845;BME280;20145;43.118;25.694;2023-03-26T03:04:09;98896.69;;;12.66;78.47
33845;BME280;20145;43.118;25.694;2023-03-26T03:06:36;98902.97;;;12.58;78.37
33845;BME280;20145;43.118;25.694;2023-03-26T03:09:04;98893.50;;;12.58;77.92
33845;BME280;20145;43.118;25.694;2023-03-26T03:11:30;98898.69;;;12.57;77.80
33845;BME280;20145;43.118;25.694;2023-03-26T03:13:55;98897.94;;;12.53;78.65
33845;BME280;20145;43.118;25.694;2023-03-26T03:16:21;98898.88;;;12.50;78.91
33845;BME280;20145;43.118;25.694;2023-03-26T03:18:47;98898.69;;;12.57;78.89
33845;BME280;20145;43.118;25.694;2023-03-26T03:21:19;98904.69;;;12.59;77.57
33845;BME280;20145;43.118;25.694;2023-03-26T03:23:45;98887.34;;;12.61;77.44
33845;BME280;20145;43.118;25.694;2023-03-26T03:26:16;98901.06;;;12.64;77.46
33845;BME280;20145;43.118;25.694;2023-03-26T03:28:47;98906.28;;;12.63;78.28
33845;BME280;20145;43.118;25.694;2023-03-26T03:31:13;98903.50;;;12.69;78.20
33845;BME280;20145;43.118;25.694;2023-03-26T03:33:39;98899.22;;;12.69;77.09
33845;BME280;20145;43.118;25.694;2023-03-26T03:36:08;98899.34;;;12.63;77.20
33845;BME280;20145;43.118;25.694;2023-03-26T03:38:36;98893.31;;;12.64;77.30
33845;BME280;20145;43.118;25.694;2023-03-26T03:41:02;98890.72;;;12.64;77.31
33845;BME280;20145;43.118;25.694;2023-03-26T03:43:27;98885.47;;;12.66;77.82
33845;BME280;20145;43.118;25.694;2023-03-26T03:45:53;98895.28;;;12.56;77.48
33845;BME280;20145;43.118;25.694;2023-03-26T03:48:19;98888.63;;;12.47;76.50
33845;BME280;20145;43.118;25.694;2023-03-26T03:50:44;98889.56;;;12.45;77.89
33845;BME280;20145;43.118;25.694;2023-03-26T03:53:10;98883.59;;;12.41;77.69
33845;BME280;20145;43.118;25.694;2023-03-26T03:55:43;98882.97;;;12.33;76.76
33845;BME280;20145;43.118;25.694;2023-03-26T03:58:21;98877.03;;;12.30;77.84
33845;BME280;20145;43.118;25.694;2023-03-26T04:00:48;98840.78;;;12.00;77.54
33845;BME280;20145;43.118;25.694;2023-03-26T04:03:15;98883.22;;;12.24;77.27
33845;BME280;20145;43.118;25.694;2023-03-26T04:05:40;98882.38;;;12.23;76.62
33845;BME280;20145;43.118;25.694;2023-03-26T04:08:08;98873.03;;;12.18;76.62
33845;BME280;20145;43.118;25.694;2023-03-26T04:10:33;98887.63;;;12.20;76.23
33845;BME280;20145;43.118;25.694;2023-03-26T04:12:59;98881.84;;;12.11;76.45
33845;BME280;20145;43.118;25.694;2023-03-26T04:15:25;98887.94;;;12.08;75.55
33845;BME280;20145;43.118;25.694;2023-03-26T04:17:50;98886.22;;;12.09;75.06
33845;BME280;20145;43.118;25.694;2023-03-26T04:20:16;98899.19;;;12.07;75.24
33845;BME280;20145;43.118;25.694;2023-03-26T04:22:44;98900.25;;;12.00;75.76
33845;BME280;20145;43.118;25.694;2023-03-26T04:25:11;98897.53;;;12.04;76.21
33845;BME280;20145;43.118;25.694;2023-03-26T04:27:38;98902.69;;;12.04;76.22
33845;BME280;20145;43.118;25.694;2023-03-26T04:30:06;98907.00;;;12.05;75.27
33845;BME280;20145;43.118;25.694;2023-03-26T04:32:34;98899.09;;;12.10;75.23
33845;BME280;20145;43.118;25.694;2023-03-26T04:35:03;98903.59;;;12.03;74.38
33845;BME280;20145;43.118;25.694;2023-03-26T04:37:35;98896.81;;;11.99;74.65
33845;BME280;20145;43.118;25.694;2023-03-26T04:40:07;98902.84;;;12.00;73.12
33845;BME280;20145;43.118;25.694;2023-03-26T04:42:34;98905.53;;;11.95;74.41
33845;BME280;20145;43.118;25.694;2023-03-26T04:45:04;98896.97;;;11.93;72.73
33845;BME280;20145;43.118;25.694;2023-03-26T04:47:30;98895.44;;;11.84;73.08
33845;BME280;20145;43.118;25.694;2023-03-26T04:49:56;98915.06;;;11.93;73.86
33845;BME280;20145;43.118;25.694;2023-03-26T04:52:21;98915.88;;;11.95;72.47
33845;BME280;20145;43.118;25.694;2023-03-26T04:54:47;98921.91;;;11.96;73.82
33845;BME280;20145;43.118;25.694;2023-03-26T04:57:20;98913.47;;;11.89;73.99
33845;BME280;20145;43.118;25.694;2023-03-26T04:59:47;98931.50;;;11.91;74.09
33845;BME280;20145;43.118;25.694;2023-03-26T05:02:14;98928.03;;;11.92;73.29
33845;BME280;20145;43.118;25.694;2023-03-26T05:04:40;98934.09;;;11.91;73.78
33845;BME280;20145;43.118;25.694;2023-03-26T05:07:09;98932.47;;;11.87;73.55
33845;BME280;20145;43.118;25.694;2023-03-26T05:09:35;98941.13;;;11.84;72.91
33845;BME280;20145;43.118;25.694;2023-03-26T05:12:01;98947.13;;;11.84;72.73
33845;BME280;20145;43.118;25.694;2023-03-26T05:14:27;98958.38;;;11.83;73.47
33845;BME280;20145;43.118;25.694;2023-03-26T05:16:52;98953.16;;;11.85;72.65
33845;BME280;20145;43.118;25.694;2023-03-26T05:19:18;98935.97;;;11.82;71.86
33845;BME280;20145;43.118;25.694;2023-03-26T05:21:44;98963.34;;;11.93;71.74
33845;BME280;20145;43.118;25.694;2023-03-26T05:24:11;98947.00;;;11.91;70.40
33845;BME280;20145;43.118;25.694;2023-03-26T05:26:36;98936.56;;;11.95;71.09
33845;BME280;20145;43.118;25.694;2023-03-26T05:29:02;98941.28;;;12.12;69.89
33845;BME280;20145;43.118;25.694;2023-03-26T05:31:29;98953.06;;;12.24;69.74
33845;BME280;20145;43.118;25.694;2023-03-26T05:33:55;98936.53;;;12.30;68.62
33845;BME280;20145;43.118;25.694;2023-03-26T05:36:22;98947.59;;;12.35;68.52
33845;BME280;20145;43.118;25.694;2023-03-26T05:38:48;98953.38;;;12.44;67.85
33845;BME280;20145;43.118;25.694;2023-03-26T05:41:15;98958.19;;;12.58;67.08
33845;BME280;20145;43.118;25.694;2023-03-26T05:43:41;98966.78;;;12.59;67.52
33845;BME280;20145;43.118;25.694;2023-03-26T05:46:10;98950.00;;;12.42;67.75
33845;BME280;20145;43.118;25.694;2023-03-26T05:48:36;98956.75;;;12.46;67.35
33845;BME280;20145;43.118;25.694;2023-03-26T05:51:03;98939.84;;;12.35;67.17
33845;BME280;20145;43.118;25.694;2023-03-26T05:53:29;98945.75;;;12.40;66.37
33845;BME280;20145;43.118;25.694;2023-03-26T05:55:54;98955.00;;;12.48;68.04
33845;BME280;20145;43.118;25.694;2023-03-26T05:58:30;98964.59;;;12.45;66.68
33845;BME280;20145;43.118;25.694;2023-03-26T06:03:33;98961.94;;;12.46;66.43
33845;BME280;20145;43.118;25.694;2023-03-26T06:05:59;98967.66;;;12.26;66.79
33845;BME280;20145;43.118;25.694;2023-03-26T06:08:24;98989.06;;;12.32;67.50
33845;BME280;20145;43.118;25.694;2023-03-26T06:10:56;98985.00;;;12.23;67.46
33845;BME280;20145;43.118;25.694;2023-03-26T06:13:22;98977.03;;;12.31;67.00
33845;BME280;20145;43.118;25.694;2023-03-26T06:15:47;98988.91;;;12.38;65.34
33845;BME280;20145;43.118;25.694;2023-03-26T06:18:13;98984.72;;;12.34;66.57
33845;BME280;20145;43.118;25.694;2023-03-26T06:20:42;98996.41;;;12.47;64.46
33845;BME280;20145;43.118;25.694;2023-03-26T06:23:08;98992.16;;;12.77;64.93
33845;BME280;20145;43.118;25.694;2023-03-26T06:25:33;98997.63;;;12.98;63.29
33845;BME280;20145;43.118;25.694;2023-03-26T06:28:00;99005.75;;;13.15;63.20
33845;BME280;20145;43.118;25.694;2023-03-26T06:30:25;99003.31;;;13.40;61.01
33845;BME280;20145;43.118;25.694;2023-03-26T06:32:51;99011.16;;;13.38;62.50
33845;BME280;20145;43.118;25.694;2023-03-26T06:35:16;98999.09;;;13.37;61.61
33845;BME280;20145;43.118;25.694;2023-03-26T06:37:42;99001.53;;;13.12;61.44
33845;BME280;20145;43.118;25.694;2023-03-26T06:40:08;99005.50;;;13.24;62.16
33845;BME280;20145;43.118;25.694;2023-03-26T06:42:33;99003.66;;;13.29;61.62
33845;BME280;20145;43.118;25.694;2023-03-26T06:44:59;98983.28;;;13.15;60.84
33845;BME280;20145;43.118;25.694;2023-03-26T06:47:25;98996.59;;;13.34;61.43
33845;BME280;20145;43.118;25.694;2023-03-26T06:49:50;99002.25;;;13.75;59.53
33845;BME280;20145;43.118;25.694;2023-03-26T06:52:16;98998.56;;;14.09;58.07
33845;BME280;20145;43.118;25.694;2023-03-26T06:54:42;99004.84;;;14.02;58.55
33845;BME280;20145;43.118;25.694;2023-03-26T06:57:07;99007.53;;;13.72;58.86
33845;BME280;20145;43.118;25.694;2023-03-26T06:59:33;99006.59;;;13.75;58.71
33845;BME280;20145;43.118;25.694;2023-03-26T07:01:58;99018.34;;;13.85;58.82
33845;BME280;20145;43.118;25.694;2023-03-26T07:04:24;99017.81;;;14.02;58.45
33845;BME280;20145;43.118;25.694;2023-03-26T07:06:50;99019.72;;;13.97;58.21
33845;BME280;20145;43.118;25.694;2023-03-26T07:09:15;99034.44;;;13.68;57.82
33845;BME280;20145;43.118;25.694;2023-03-26T07:11:41;99008.38;;;13.73;58.87
33845;BME280;20145;43.118;25.694;2023-03-26T07:14:06;99020.94;;;13.58;58.87
33845;BME280;20145;43.118;25.694;2023-03-26T07:16:32;99032.41;;;13.50;58.72
33845;BME280;20145;43.118;25.694;2023-03-26T07:18:57;99022.84;;;13.52;57.92
33845;BME280;20145;43.118;25.694;2023-03-26T07:21:23;99026.78;;;13.35;58.26
33845;BME280;20145;43.118;25.694;2023-03-26T07:23:49;99028.31;;;13.43;58.22
33845;BME280;20145;43.118;25.694;2023-03-26T07:29:46;99019.09;;;13.60;59.67
33845;BME280;20145;43.118;25.694;2023-03-26T07:32:20;99021.00;;;13.83;57.58
33845;BME280;20145;43.118;25.694;2023-03-26T07:34:57;99026.09;;;13.87;58.34
33845;BME280;20145;43.118;25.694;2023-03-26T07:37:49;99028.53;;;14.18;57.99
33845;BME280;20145;43.118;25.694;2023-03-26T07:40:23;99021.34;;;14.26;55.86
33845;BME280;20145;43.118;25.694;2023-03-26T07:45:54;99012.41;;;14.61;54.94
33845;BME280;20145;43.118;25.694;2023-03-26T07:48:23;98998.06;;;14.49;54.89
33845;BME280;20145;43.118;25.694;2023-03-26T07:50:53;99015.03;;;14.60;53.83
33845;BME280;20145;43.118;25.694;2023-03-26T07:53:20;99008.47;;;14.75;54.88
33845;BME280;20145;43.118;25.694;2023-03-26T07:56:14;99029.59;;;14.89;52.74
33845;BME280;20145;43.118;25.694;2023-03-26T08:07:14;99014.50;;;14.75;53.86
33845;BME280;20145;43.118;25.694;2023-03-26T08:12:58;99009.31;;;14.75;53.59
33845;BME280;20145;43.118;25.694;2023-03-26T08:15:36;99014.09;;;14.62;53.64
33845;BME280;20145;43.118;25.694;2023-03-26T08:20:54;99012.50;;;14.83;55.89
33845;BME280;20145;43.118;25.694;2023-03-26T08:23:31;99005.47;;;14.62;54.47
33845;BME280;20145;43.118;25.694;2023-03-26T08:26:12;98999.91;;;14.21;53.89
33845;BME280;20145;43.118;25.694;2023-03-26T08:28:56;99009.16;;;14.55;52.78
33845;BME280;20145;43.118;25.694;2023-03-26T08:31:31;99003.00;;;14.82;52.03
33845;BME280;20145;43.118;25.694;2023-03-26T08:33:58;99004.69;;;15.07;52.59
33845;BME280;20145;43.118;25.694;2023-03-26T08:36:24;98992.59;;;15.29;52.03
33845;BME280;20145;43.118;25.694;2023-03-26T08:38:50;99000.53;;;15.48;52.95
33845;BME280;20145;43.118;25.694;2023-03-26T08:42:23;98997.47;;;15.60;52.72
33845;BME280;20145;43.118;25.694;2023-03-26T08:48:27;99005.91;;;15.66;50.18
33845;BME280;20145;43.118;25.694;2023-03-26T08:55:54;99000.50;;;15.50;50.43
33845;BME280;20145;43.118;25.694;2023-03-26T09:07:25;99010.00;;;15.73;50.78
33845;BME280;20145;43.118;25.694;2023-03-26T09:21:25;99007.00;;;15.83;48.81
33845;BME280;20145;43.118;25.694;2023-03-26T09:40:16;99022.41;;;16.10;49.53
33845;BME280;20145;43.118;25.694;2023-03-26T09:42:52;99017.84;;;16.15;48.28
33845;BME280;20145;43.118;25.694;2023-03-26T10:09:56;98980.94;;;16.67;45.05
33845;BME280;20145;43.118;25.694;2023-03-26T10:12:51;98982.03;;;16.82;44.98
33845;BME280;20145;43.118;25.694;2023-03-26T10:15:34;98980.09;;;16.87;44.36
33845;BME280;20145;43.118;25.694;2023-03-26T10:40:50;98936.13;;;17.36;36.80
33845;BME280;20145;43.118;25.694;2023-03-26T10:43:36;98956.16;;;17.35;35.30
33845;BME280;20145;43.118;25.694;2023-03-26T10:46:24;98971.88;;;17.51;34.54
33845;BME280;20145;43.118;25.694;2023-03-26T10:56:44;98935.94;;;17.22;36.83
33845;BME280;20145;43.118;25.694;2023-03-26T10:59:12;98920.84;;;17.09;35.79
33845;BME280;20145;43.118;25.694;2023-03-26T11:10:08;98915.63;;;17.28;34.96
33845;BME280;20145;43.118;25.694;2023-03-26T11:15:37;98900.25;;;17.41;36.21
33845;BME280;20145;43.118;25.694;2023-03-26T11:21:07;98915.41;;;17.33;32.97
33845;BME280;20145;43.118;25.694;2023-03-26T11:23:39;98904.81;;;17.36;33.77
33845;BME280;20145;43.118;25.694;2023-03-26T11:32:02;98885.69;;;17.72;34.69
33845;BME280;20145;43.118;25.694;2023-03-26T11:34:42;98873.97;;;17.80;34.89
33845;BME280;20145;43.118;25.694;2023-03-26T11:37:49;98885.22;;;17.64;32.58
33845;BME280;20145;43.118;25.694;2023-03-26T11:40:32;98866.25;;;17.43;33.81
33845;BME280;20145;43.118;25.694;2023-03-26T11:43:01;98867.13;;;17.60;33.55
33845;BME280;20145;43.118;25.694;2023-03-26T11:45:31;98861.88;;;17.79;33.57
33845;BME280;20145;43.118;25.694;2023-03-26T11:50:41;98858.25;;;17.82;34.37
33845;BME280;20145;43.118;25.694;2023-03-26T11:53:13;98842.72;;;17.96;34.18
33845;BME280;20145;43.118;25.694;2023-03-26T11:55:45;98846.94;;;17.99;34.60
33845;BME280;20145;43.118;25.694;2023-03-26T12:00:50;98834.91;;;17.79;34.11
33845;BME280;20145;43.118;25.694;2023-03-26T12:03:17;98846.25;;;17.95;33.75
33845;BME280;20145;43.118;25.694;2023-03-26T12:05:50;98848.47;;;18.03;33.11
33845;BME280;20145;43.118;25.694;2023-03-26T12:08:26;98839.97;;;17.99;32.98
33845;BME280;20145;43.118;25.694;2023-03-26T12:11:03;98842.03;;;17.93;33.05
33845;BME280;20145;43.118;25.694;2023-03-26T12:13:43;98834.28;;;17.91;33.48
33845;BME280;20145;43.118;25.694;2023-03-26T12:16:16;98837.38;;;17.82;33.61
33845;BME280;20145;43.118;25.694;2023-03-26T12:18:43;98833.81;;;18.00;33.41
33845;BME280;20145;43.118;25.694;2023-03-26T12:21:18;98826.81;;;18.01;33.28
33845;BME280;20145;43.118;25.694;2023-03-26T12:23:53;98843.47;;;17.98;32.85
33845;BME280;20145;43.118;25.694;2023-03-26T12:26:42;98823.91;;;18.07;33.09
33845;BME280;20145;43.118;25.694;2023-03-26T12:29:16;98813.75;;;18.01;32.36
33845;BME280;20145;43.118;25.694;2023-03-26T12:31:50;98809.19;;;17.89;31.75
33845;BME280;20145;43.118;25.694;2023-03-26T12:34:18;98838.19;;;18.00;31.77
33845;BME280;20145;43.118;25.694;2023-03-26T12:36:53;98816.63;;;17.79;32.77
33845;BME280;20145;43.118;25.694;2023-03-26T12:39:38;98833.97;;;17.97;32.39
33845;BME280;20145;43.118;25.694;2023-03-26T12:42:23;98818.47;;;17.94;31.57
33845;BME280;20145;43.118;25.694;2023-03-26T12:44:51;98815.41;;;17.86;32.15
33845;BME280;20145;43.118;25.694;2023-03-26T12:47:22;98817.78;;;17.91;31.96
33845;BME280;20145;43.118;25.694;2023-03-26T12:49:50;98810.69;;;17.75;31.08
33845;BME280;20145;43.118;25.694;2023-03-26T12:55:13;98816.25;;;17.69;31.28
33845;BME280;20145;43.118;25.694;2023-03-26T13:06:24;98789.31;;;17.86;33.03
33845;BME280;20145;43.118;25.694;2023-03-26T13:09:03;98810.25;;;17.84;31.51
33845;BME280;20145;43.118;25.694;2023-03-26T13:20:09;98795.59;;;17.99;32.00
33845;BME280;20145;43.118;25.694;2023-03-26T13:25:50;98793.47;;;18.06;32.09
33845;BME280;20145;43.118;25.694;2023-03-26T13:28:35;98787.19;;;18.10;31.74
33845;BME280;20145;43.118;25.694;2023-03-26T13:33:55;98799.31;;;18.11;31.94
33845;BME280;20145;43.118;25.694;2023-03-26T13:36:32;98793.13;;;17.96;31.36
33845;BME280;20145;43.118;25.694;2023-03-26T13:47:38;98801.31;;;18.06;31.48
33845;BME280;20145;43.118;25.694;2023-03-26T13:52:46;98790.47;;;18.14;30.66
33845;BME280;20145;43.118;25.694;2023-03-26T13:55:29;98795.88;;;18.11;30.35
33845;BME280;20145;43.118;25.694;2023-03-26T13:58:03;98807.75;;;18.16;31.44
33845;BME280;20145;43.118;25.694;2023-03-26T14:00:53;98812.47;;;17.92;31.20
33845;BME280;20145;43.118;25.694;2023-03-26T14:04:09;98810.13;;;17.88;30.61
33845;BME280;20145;43.118;25.694;2023-03-26T14:06:27;98801.53;;;17.86;31.20
33845;BME280;20145;43.118;25.694;2023-03-26T14:09:06;98804.44;;;17.79;30.22
33845;BME280;20145;43.118;25.694;2023-03-26T14:14:18;98789.00;;;17.75;31.46
33845;BME280;20145;43.118;25.694;2023-03-26T14:16:53;98783.31;;;17.67;29.91
33845;BME280;20145;43.118;25.694;2023-03-26T14:19:42;98797.59;;;17.77;30.88
33845;BME280;20145;43.118;25.694;2023-03-26T14:24:49;98803.28;;;17.85;29.47
33845;BME280;20145;43.118;25.694;2023-03-26T14:35:53;98789.81;;;17.75;29.04
33845;BME280;20145;43.118;25.694;2023-03-26T14:44:16;98767.81;;;17.64;30.46
33845;BME280;20145;43.118;25.694;2023-03-26T14:47:11;98783.78;;;17.57;31.15
33845;BME280;20145;43.118;25.694;2023-03-26T14:55:15;98797.06;;;17.53;30.18
33845;BME280;20145;43.118;25.694;2023-03-26T15:43:18;98802.88;;;16.87;31.94
33845;BME280;20145;43.118;25.694;2023-03-26T15:48:51;98819.91;;;16.75;33.62
33845;BME280;20145;43.118;25.694;2023-03-26T15:57:53;98820.28;;;16.67;34.32
33845;BME280;20145;43.118;25.694;2023-03-26T16:00:24;98818.88;;;16.60;34.05
33845;BME280;20145;43.118;25.694;2023-03-26T16:11:05;98811.00;;;16.24;35.27
33845;BME280;20145;43.118;25.694;2023-03-26T16:13:41;98823.28;;;16.20;35.16
33845;BME280;20145;43.118;25.694;2023-03-26T16:26:16;98838.41;;;15.92;34.19
33845;BME280;20145;43.118;25.694;2023-03-26T16:44:25;98836.75;;;15.48;36.54
33845;BME280;20145;43.118;25.694;2023-03-26T16:49:37;98844.88;;;15.18;38.29
33845;BME280;20145;43.118;25.694;2023-03-26T16:52:41;98836.66;;;15.07;36.99
33845;BME280;20145;43.118;25.694;2023-03-26T16:55:45;98846.16;;;15.08;36.74
33845;BME280;20145;43.118;25.694;2023-03-26T17:01:02;98844.44;;;14.85;38.61
33845;BME280;20145;43.118;25.694;2023-03-26T17:12:02;98845.28;;;14.64;39.02
33845;BME280;20145;43.118;25.694;2023-03-26T17:17:37;98863.63;;;14.59;38.60
33845;BME280;20145;43.118;25.694;2023-03-26T17:20:26;98870.69;;;14.56;40.97
33845;BME280;20145;43.118;25.694;2023-03-26T17:26:15;98875.38;;;14.44;42.09
33845;BME280;20145;43.118;25.694;2023-03-26T17:33:48;98882.41;;;14.17;43.08
33845;BME280;20145;43.118;25.694;2023-03-26T17:36:28;98892.91;;;14.14;43.43
33845;BME280;20145;43.118;25.694;2023-03-26T17:39:16;98893.03;;;14.10;42.41
33845;BME280;20145;43.118;25.694;2023-03-26T17:41:54;98896.66;;;14.05;44.00
33845;BME280;20145;43.118;25.694;2023-03-26T17:44:41;98896.09;;;13.96;44.16
33845;BME280;20145;43.118;25.694;2023-03-26T17:50:02;98893.19;;;13.80;42.90
33845;BME280;20145;43.118;25.694;2023-03-26T17:52:34;98902.91;;;13.73;45.64
33845;BME280;20145;43.118;25.694;2023-03-26T17:55:08;98905.66;;;13.69;44.89
33845;BME280;20145;43.118;25.694;2023-03-26T17:57:42;98899.09;;;13.58;44.97
33845;BME280;20145;43.118;25.694;2023-03-26T18:00:27;98884.94;;;13.42;44.72
33845;BME280;20145;43.118;25.694;2023-03-26T18:03:04;98909.19;;;13.39;44.56
33845;BME280;20145;43.118;25.694;2023-03-26T18:05:33;98902.59;;;13.29;46.11
33845;BME280;20145;43.118;25.694;2023-03-26T18:18:57;98912.63;;;13.12;46.16
33845;BME280;20145;43.118;25.694;2023-03-26T18:23:51;98911.19;;;13.02;45.71
33845;BME280;20145;43.118;25.694;2023-03-26T18:26:30;98899.19;;;12.99;46.76
33845;BME280;20145;43.118;25.694;2023-03-26T18:31:40;98893.53;;;12.86;43.68
33845;BME280;20145;43.118;25.694;2023-03-26T18:34:12;98898.84;;;12.82;44.87
33845;BME280;20145;43.118;25.694;2023-03-26T18:36:38;98899.69;;;12.82;44.12
33845;BME280;20145;43.118;25.694;2023-03-26T18:39:04;98904.13;;;12.77;44.45
33845;BME280;20145;43.118;25.694;2023-03-26T18:41:35;98900.06;;;12.70;44.08
33845;BME280;20145;43.118;25.694;2023-03-26T18:44:05;98897.56;;;12.67;44.06
33845;BME280;20145;43.118;25.694;2023-03-26T18:46:35;98895.28;;;12.56;44.49
33845;BME280;20145;43.118;25.694;2023-03-26T18:49:02;98897.69;;;12.61;44.42
33845;BME280;20145;43.118;25.694;2023-03-26T18:51:28;98888.88;;;12.68;45.18
33845;BME280;20145;43.118;25.694;2023-03-26T18:53:57;98895.28;;;12.56;44.52
33845;BME280;20145;43.118;25.694;2023-03-26T18:58:50;98888.38;;;12.55;46.03
33845;BME280;20145;43.118;25.694;2023-03-26T19:01:16;98887.81;;;12.45;46.17
33845;BME280;20145;43.118;25.694;2023-03-26T19:03:44;98876.78;;;12.39;45.07
33845;BME280;20145;43.118;25.694;2023-03-26T19:06:11;98874.13;;;12.42;44.89
33845;BME280;20145;43.118;25.694;2023-03-26T19:08:40;98878.47;;;12.40;45.29
33845;BME280;20145;43.118;25.694;2023-03-26T19:11:08;98868.84;;;12.45;45.57